Time;durP1;ratioP1;P1;durP2;ratioP2;P2;SDS_P1;SDS_P2;PMS_P1;PMS_P2;Temp;Humidity;BMP_temperature;BMP_pressure;BME280_temperature;BME280_humidity;BME280_pressure;Samples;Min_cycle;Max_cycle;Signal;HPM_P1;HPM_P2
2021/01/27 00:00:59;;;;;;;10.65;4.32;;;9.40;61.60;;;;;;2097989;28;20104;-72
2021/01/27 00:02:01;;;;;;;7.78;3.65;;;9.30;58.40;;;;;;2098075;28;20105;-72
2021/01/27 00:03:04;;;;;;;7.97;4.00;;;9.20;60.90;;;;;;2097288;28;20052;-79
2021/01/27 00:04:06;;;;;;;11.45;4.20;;;9.60;59.10;;;;;;2097338;28;20520;-72
2021/01/27 00:05:12;;;;;;;8.15;3.67;;;9.60;59.10;;;;;;2098093;28;20053;-81
2021/01/27 00:06:14;;;;;;;8.35;2.92;;;9.20;59.20;;;;;;2097798;28;20048;-73
2021/01/27 00:07:16;;;;;;;7.95;4.13;;;9.30;60.60;;;;;;2097913;28;20131;-74
2021/01/27 00:08:18;;;;;;;7.30;2.90;;;9.10;60.70;;;;;;2097766;28;20408;-72
2021/01/27 00:09:20;;;;;;;7.20;3.65;;;9.20;62.60;;;;;;2098061;28;20052;-72
2021/01/27 00:10:22;;;;;;;6.68;2.70;;;9.50;61.60;;;;;;2098509;28;20056;-74
2021/01/27 00:11:24;;;;;;;8.95;3.75;;;9.80;61.10;;;;;;2098330;28;20076;-72
2021/01/27 00:12:26;;;;;;;7.63;3.55;;;9.80;59.70;;;;;;2097667;28;20443;-72
2021/01/27 00:13:28;;;;;;;9.85;4.40;;;9.80;59.50;;;;;;2097861;28;20051;-72
2021/01/27 00:14:29;;;;;;;5.30;3.25;;;9.60;58.30;;;;;;2097462;28;20048;-73
2021/01/27 00:15:34;;;;;;;9.00;3.75;;;9.60;60.60;;;;;;2097942;28;20052;-71
2021/01/27 00:16:36;;;;;;;8.07;4.05;;;9.50;60.70;;;;;;2097642;28;20428;-72
2021/01/27 00:17:38;;;;;;;6.75;3.50;;;9.30;61.40;;;;;;2097859;28;20051;-72
2021/01/27 00:18:39;;;;;;;6.00;2.90;;;9.20;60.00;;;;;;2097648;28;20508;-72
2021/01/27 00:19:41;;;;;;;7.25;3.47;;;9.30;61.20;;;;;;2097871;28;20051;-77
2021/01/27 00:20:43;;;;;;;9.23;3.80;;;9.20;61.00;;;;;;2096849;28;20044;-72
2021/01/27 00:21:45;;;;;;;5.70;2.70;;;9.40;60.90;;;;;;2097257;28;20056;-72
2021/01/27 00:22:47;;;;;;;8.23;3.20;;;9.70;62.00;;;;;;2097569;28;20516;-72
2021/01/27 00:23:48;;;;;;;;;;;9.20;62.10;;;;;;2098165;28;20052;-77
2021/01/27 00:24:50;;;;;;;4.85;2.55;;;9.50;60.80;;;;;;2097845;28;19920;-77
2021/01/27 00:25:52;;;;;;;7.68;2.97;;;9.70;62.00;;;;;;2097857;28;20051;-72
2021/01/27 00:26:53;;;;;;;;;;;10.00;60.80;;;;;;2097665;28;20049;-71
2021/01/27 00:27:55;;;;;;;13.32;3.65;;;10.10;60.60;;;;;;2097231;28;19944;-72
2021/01/27 00:28:56;;;;;;;4.88;2.95;;;9.80;60.30;;;;;;2096999;28;20041;-72
2021/01/27 00:29:59;;;;;;;10.23;3.70;;;9.50;61.60;;;;;;2097899;28;20048;-77
2021/01/27 00:31:01;;;;;;;5.63;3.45;;;9.70;63.00;;;;;;2097952;28;20477;-71
2021/01/27 00:32:03;;;;;;;6.93;3.78;;;9.60;62.30;;;;;;2098189;28;20052;-74
2021/01/27 00:33:07;;;;;;;7.47;3.42;;;9.40;62.70;;;;;;2098579;28;20048;-71
2021/01/27 00:34:09;;;;;;;5.80;3.22;;;9.50;63.10;;;;;;2099234;28;20048;-73
2021/01/27 00:35:12;;;;;;;10.45;3.80;;;9.50;63.70;;;;;;2098251;28;20044;-76
2021/01/27 00:36:14;;;;;;;6.18;2.92;;;9.10;63.40;;;;;;2098127;28;20412;-73
2021/01/27 00:37:15;;;;;;;5.50;2.80;;;9.10;64.30;;;;;;2098281;28;20048;-72
2021/01/27 00:38:19;;;;;;;6.75;3.42;;;9.40;66.80;;;;;;2097862;28;20048;-72
2021/01/27 00:39:21;;;;;;;7.07;3.60;;;9.30;64.90;;;;;;2097815;28;20202;-72
2021/01/27 00:40:23;;;;;;;;;;;9.00;65.30;;;;;;2098331;28;20052;-72
2021/01/27 00:41:24;;;;;;;8.65;3.13;;;9.40;64.60;;;;;;2098171;28;19935;-72
2021/01/27 00:42:26;;;;;;;6.70;2.90;;;9.30;64.30;;;;;;2098353;28;20055;-73
2021/01/27 00:43:28;;;;;;;7.30;2.85;;;9.30;64.40;;;;;;2099301;28;20507;-72
2021/01/27 00:44:29;;;;;;;6.03;2.75;;;9.40;64.30;;;;;;2099532;28;20059;-72
2021/01/27 00:45:32;;;;;;;8.07;3.35;;;9.40;64.60;;;;;;2099222;28;20041;-73
2021/01/27 00:46:34;;;;;;;;;;;9.30;64.00;;;;;;2100004;28;20048;-76
2021/01/27 00:47:36;;;;;;;6.10;3.17;;;8.80;66.30;;;;;;2099796;28;19970;-72
2021/01/27 00:48:38;;;;;;;6.10;3.08;;;9.40;65.20;;;;;;2099911;28;20047;-74
2021/01/27 00:49:39;;;;;;;4.72;2.88;;;9.10;65.70;;;;;;2099763;28;20477;-76
2021/01/27 00:50:41;;;;;;;;;;;9.50;65.00;;;;;;2100442;28;20087;-72
2021/01/27 00:51:43;;;;;;;7.85;2.92;;;9.20;64.30;;;;;;2099085;28;20008;-72
2021/01/27 00:52:44;;;;;;;8.70;3.22;;;9.50;65.70;;;;;;2098961;28;20485;-72
2021/01/27 00:53:46;;;;;;;6.72;3.42;;;9.70;64.40;;;;;;2098661;28;20044;-72
2021/01/27 00:54:47;;;;;;;4.55;2.85;;;9.50;64.00;;;;;;2098021;28;20405;-73
2021/01/27 00:55:49;;;;;;;2.47;1.77;;;9.30;65.10;;;;;;2097566;28;20052;-72
2021/01/27 00:56:51;;;;;;;3.38;2.80;;;9.70;64.20;;;;;;2097815;28;20060;-72
2021/01/27 00:57:53;;;;;;;4.28;2.70;;;9.80;63.60;;;;;;2097826;28;20405;-72
2021/01/27 00:58:54;;;;;;;;;;;9.80;62.50;;;;;;2098092;28;20045;-73
2021/01/27 00:59:56;;;;;;;5.60;2.85;;;10.10;62.00;;;;;;2098209;28;20526;-72
2021/01/27 01:00:57;;;;;;;5.13;2.65;;;10.20;61.20;;;;;;2098773;28;20048;-72
2021/01/27 01:02:00;;;;;;;6.50;2.85;;;10.40;60.60;;;;;;2099045;28;20044;-72
2021/01/27 01:03:03;;;;;;;8.40;3.20;;;10.40;60.80;;;;;;2099112;28;20048;-72
2021/01/27 01:04:05;;;;;;;6.47;2.88;;;10.30;61.20;;;;;;2098705;28;20060;-72
2021/01/27 01:05:10;;;;;;;8.15;3.35;;;10.70;60.20;;;;;;2098717;28;20124;-72
2021/01/27 01:06:11;;;;;;;6.57;3.83;;;10.40;59.90;;;;;;2098236;28;20040;-77
2021/01/27 01:07:13;;;;;;;5.75;2.50;;;10.00;60.00;;;;;;2098110;28;20055;-71
2021/01/27 01:08:17;;;;;;;5.95;2.40;;;10.20;60.90;;;;;;2098171;28;20052;-72
2021/01/27 01:09:19;;;;;;;7.75;3.03;;;10.60;59.80;;;;;;2098324;28;20049;-73
2021/01/27 01:10:22;;;;;;;;;;;10.60;59.20;;;;;;2098605;28;20051;-72
2021/01/27 01:11:25;;;;;;;4.63;2.85;;;10.50;58.50;;;;;;2097485;28;19962;-72
2021/01/27 01:12:27;;;;;;;8.02;3.08;;;10.40;59.10;;;;;;2097253;28;20045;-73
2021/01/27 01:13:31;;;;;;;8.70;3.88;;;10.30;58.80;;;;;;2097693;28;20049;-72
2021/01/27 01:14:32;;;;;;;8.73;3.53;;;9.70;60.00;;;;;;2097313;28;20055;-71
2021/01/27 01:15:34;;;;;;;4.63;2.50;;;9.20;62.60;;;;;;2096822;28;20455;-71
2021/01/27 01:16:38;;;;;;;9.23;3.65;;;9.60;64.10;;;;;;2097075;28;20539;-72
2021/01/27 01:17:41;;;;;;;6.78;3.83;;;9.10;62.90;;;;;;2098549;28;20048;-72
2021/01/27 01:18:43;;;;;;;5.30;2.92;;;9.00;63.90;;;;;;2098255;28;20048;-74
2021/01/27 01:19:44;;;;;;;5.40;3.17;;;9.10;65.20;;;;;;2098486;28;20060;-72
2021/01/27 01:20:47;;;;;;;6.22;3.15;;;9.30;64.60;;;;;;2098284;28;20055;-72
2021/01/27 01:21:49;;;;;;;8.30;3.58;;;9.60;63.90;;;;;;2098121;28;20075;-72
2021/01/27 01:22:53;;;;;;;5.35;3.00;;;9.60;63.80;;;;;;2098979;28;20053;-73
2021/01/27 01:23:55;;;;;;;4.72;2.72;;;9.40;64.90;;;;;;2098682;28;20407;-72
2021/01/27 01:24:56;;;;;;;5.05;2.92;;;9.70;64.60;;;;;;2098539;28;20044;-72
2021/01/27 01:25:58;;;;;;;10.27;3.60;;;9.70;64.40;;;;;;2098502;28;20044;-73
2021/01/27 01:27:00;;;;;;;4.75;2.80;;;9.80;63.00;;;;;;2097792;28;20055;-73
2021/01/27 01:28:04;;;;;;;7.28;3.80;;;9.70;63.20;;;;;;2098203;28;20040;-72
2021/01/27 01:29:05;;;;;;;5.45;3.00;;;9.60;63.30;;;;;;2098049;28;20077;-77
2021/01/27 01:30:11;;;;;;;6.20;2.80;;;9.60;65.30;;;;;;2097889;28;20048;-73
2021/01/27 01:31:12;;;;;;;6.32;3.20;;;9.30;65.40;;;;;;2097553;28;20048;-73
2021/01/27 01:32:14;;;;;;;7.10;3.90;;;9.40;65.50;;;;;;2097677;28;20099;-72
2021/01/27 01:33:19;;;;;;;6.72;3.17;;;9.50;64.80;;;;;;2099051;28;20476;-72
2021/01/27 01:34:22;;;;;;;5.80;2.50;;;9.60;65.20;;;;;;2099308;28;20053;-72
2021/01/27 01:35:24;;;;;;;7.80;2.80;;;9.70;63.60;;;;;;2099170;28;20055;-72
2021/01/27 01:36:26;;;;;;;11.32;2.90;;;9.60;64.10;;;;;;2099606;28;20516;-72
2021/01/27 01:37:28;;;;;;;5.18;2.55;;;9.50;64.50;;;;;;2099878;28;20045;-75
2021/01/27 01:38:29;;;;;;;4.65;3.08;;;9.50;65.70;;;;;;2099389;28;20503;-72
2021/01/27 01:39:31;;;;;;;4.25;2.60;;;9.50;65.60;;;;;;2099150;28;20500;-72
2021/01/27 01:40:36;;;;;;;5.53;3.30;;;9.70;65.00;;;;;;2099798;28;20055;-72
2021/01/27 01:41:37;;;;;;;5.38;3.33;;;10.00;64.60;;;;;;2098908;28;20048;-72
2021/01/27 01:42:39;;;;;;;5.47;2.80;;;9.50;65.30;;;;;;2098835;28;20049;-75
2021/01/27 01:43:41;;;;;;;6.45;3.40;;;9.20;68.30;;;;;;2099123;28;20535;-72
2021/01/27 01:44:44;;;;;;;8.65;3.45;;;9.00;69.30;;;;;;2098946;28;20045;-72
2021/01/27 01:45:47;;;;;;;3.75;2.58;;;9.10;68.00;;;;;;2099067;28;20041;-72
2021/01/27 01:46:49;;;;;;;9.20;3.30;;;9.20;68.50;;;;;;2098954;28;20041;-72
2021/01/27 01:47:53;;;;;;;6.72;3.03;;;9.00;68.30;;;;;;2098727;28;20043;-72
2021/01/27 01:48:59;;;;;;;5.03;3.05;;;9.20;69.50;;;;;;2098851;28;20488;-75
2021/01/27 01:50:01;;;;;;;7.35;2.83;;;8.90;70.00;;;;;;2099090;28;20045;-72
2021/01/27 01:51:10;;;;;;;6.43;3.60;;;9.00;69.50;;;;;;2099048;28;20316;-72
2021/01/27 01:52:12;;;;;;;7.88;2.65;;;8.80;70.80;;;;;;2098736;28;20044;-72
2021/01/27 01:53:13;;;;;;;;;;;8.90;71.80;;;;;;2099085;28;20045;-72
2021/01/27 01:54:18;;;;;;;6.93;2.53;;;9.10;70.00;;;;;;2098870;28;19928;-73
2021/01/27 01:55:22;;;;;;;8.68;3.15;;;9.30;69.90;;;;;;2098695;28;20062;-75
2021/01/27 01:56:26;;;;;;;7.78;3.63;;;9.20;69.50;;;;;;2098833;28;20044;-72
2021/01/27 01:57:29;;;;;;;4.00;2.22;;;9.00;70.40;;;;;;2098770;28;20078;-72
2021/01/27 01:58:31;;;;;;;7.13;3.25;;;9.40;69.20;;;;;;2098780;28;20055;-72
2021/01/27 01:59:35;;;;;;;8.38;3.05;;;9.60;68.00;;;;;;2098791;28;20045;-72
2021/01/27 02:00:38;;;;;;;6.45;3.45;;;9.80;66.90;;;;;;2098704;28;20044;-71
2021/01/27 02:01:43;;;;;;;5.97;3.25;;;9.40;68.20;;;;;;2098749;28;20432;-73
2021/01/27 02:02:45;;;;;;;5.30;3.47;;;9.10;69.80;;;;;;2098575;28;20045;-72
2021/01/27 02:03:49;;;;;;;6.32;3.80;;;9.00;70.20;;;;;;2098701;28;20052;-71
2021/01/27 02:04:54;;;;;;;6.43;2.50;;;8.80;70.50;;;;;;2098750;28;20075;-72
2021/01/27 02:05:58;;;;;;;5.18;2.97;;;8.90;71.30;;;;;;2098933;28;20052;-73
2021/01/27 02:06:59;;;;;;;6.03;2.50;;;9.50;68.90;;;;;;2098653;28;20480;-72
2021/01/27 02:08:01;;;;;;;6.22;3.20;;;10.00;66.90;;;;;;2098681;28;20048;-72
2021/01/27 02:09:04;;;;;;;7.20;3.33;;;9.90;66.10;;;;;;2098364;28;20508;-72
2021/01/27 02:10:07;;;;;;;7.32;3.30;;;9.70;66.80;;;;;;2098851;28;20056;-72
2021/01/27 02:11:11;;;;;;;5.05;2.28;;;9.60;67.30;;;;;;2098629;28;20048;-72
2021/01/27 02:12:30;;;;;;;7.45;3.38;;;10.00;66.00;;;;;;2098426;28;20409;-72
2021/01/27 02:13:59;;;;;;;7.97;3.70;;;9.80;66.30;;;;;;2098788;28;20060;-75
2021/01/27 02:15:15;;;;;;;6.28;2.95;;;9.90;65.70;;;;;;2098732;28;20149;-72
2021/01/27 02:16:22;;;;;;;3.88;2.13;;;10.00;66.30;;;;;;2098605;28;20493;-73
2021/01/27 02:17:34;;;;;;;6.47;2.67;;;10.00;65.20;;;;;;2098726;28;20055;-72
2021/01/27 02:18:50;;;;;;;4.50;2.45;;;9.90;65.60;;;;;;2098766;28;20052;-72
2021/01/27 02:20:22;;;;;;;6.70;3.22;;;9.90;65.40;;;;;;2098762;28;20060;-72
2021/01/27 02:21:50;;;;;;;6.90;3.17;;;9.60;65.70;;;;;;2098547;28;20055;-72
2021/01/27 02:23:34;;;;;;;5.28;2.33;;;9.40;67.80;;;;;;2088228;28;20071;-71
2021/01/27 02:25:17;;;;;;;4.18;2.47;;;9.90;66.90;;;;;;2072916;28;20513;-71
2021/01/27 02:26:46;;;;;;;7.15;2.92;;;10.00;65.70;;;;;;2091096;28;20048;-71
2021/01/27 02:27:50;;;;;;;5.30;2.97;;;9.50;66.80;;;;;;2098944;28;20225;-72
2021/01/27 02:29:15;;;;;;;5.15;3.30;;;9.10;68.20;;;;;;2099168;28;20055;-72
2021/01/27 02:30:45;;;;;;;5.25;2.20;;;9.00;68.90;;;;;;2098760;28;20047;-72
2021/01/27 02:31:59;;;;;;;3.88;2.35;;;9.80;67.70;;;;;;2095255;28;20051;-74
2021/01/27 02:33:38;;;;;;;4.63;2.88;;;10.30;65.10;;;;;;2098475;28;20072;-72
2021/01/27 02:35:08;;;;;;;6.53;3.10;;;9.80;65.40;;;;;;2098740;28;20065;-75
2021/01/27 02:36:14;;;;;;;4.35;2.65;;;9.80;65.80;;;;;;2085356;28;20048;-72
2021/01/27 02:37:20;;;;;;;7.68;3.05;;;9.40;67.00;;;;;;2098731;28;20500;-72
2021/01/27 02:38:25;;;;;;;4.78;2.83;;;9.60;66.40;;;;;;2098566;28;20396;-72
2021/01/27 02:39:31;;;;;;;6.65;2.80;;;9.40;65.20;;;;;;2098311;28;20049;-72
2021/01/27 02:40:37;;;;;;;6.97;3.20;;;9.50;66.00;;;;;;2098670;28;20059;-72
2021/01/27 02:41:46;;;;;;;7.65;2.75;;;9.20;65.00;;;;;;2098502;28;20063;-72
2021/01/27 02:42:58;;;;;;;5.38;2.83;;;9.20;66.40;;;;;;2098663;28;20048;-72
2021/01/27 02:44:05;;;;;;;7.63;2.65;;;9.20;67.70;;;;;;2098645;28;20049;-72
2021/01/27 02:45:11;;;;;;;3.75;2.40;;;9.30;68.00;;;;;;2098523;28;20489;-72
2021/01/27 02:46:16;;;;;;;4.72;2.38;;;9.30;67.30;;;;;;2098396;28;20481;-75
2021/01/27 02:47:23;;;;;;;3.60;2.28;;;9.00;67.40;;;;;;2098546;28;20056;-72
2021/01/27 02:48:30;;;;;;;5.72;2.55;;;8.70;68.30;;;;;;2098498;28;20049;-72
2021/01/27 02:49:36;;;;;;;4.15;2.80;;;8.60;71.10;;;;;;2098457;28;20047;-73
2021/01/27 02:50:42;;;;;;;8.80;3.55;;;8.80;69.60;;;;;;2098475;28;20049;-72
2021/01/27 02:51:48;;;;;;;3.63;2.58;;;8.40;69.90;;;;;;2098750;28;20131;-73
2021/01/27 02:52:57;;;;;;;4.25;2.20;;;8.30;70.40;;;;;;2098708;28;20055;-72
2021/01/27 02:54:07;;;;;;;6.25;2.10;;;8.50;72.70;;;;;;2098753;28;20045;-73
2021/01/27 02:55:13;;;;;;;5.18;2.97;;;8.90;70.50;;;;;;2098834;28;20405;-72
2021/01/27 02:56:22;;;;;;;6.43;2.70;;;8.80;70.30;;;;;;2099054;28;20051;-72
2021/01/27 02:57:28;;;;;;;5.45;3.03;;;9.30;68.00;;;;;;2098937;28;20059;-72
2021/01/27 02:58:35;;;;;;;3.70;2.55;;;9.20;67.30;;;;;;2098821;28;20083;-73
2021/01/27 02:59:41;;;;;;;3.33;2.40;;;8.80;69.70;;;;;;2098858;28;20052;-72
2021/01/27 03:00:47;;;;;;;6.47;2.65;;;8.60;70.50;;;;;;2098893;28;20063;-72
2021/01/27 03:01:57;;;;;;;7.40;3.10;;;9.00;69.40;;;;;;2098911;28;20404;-71
2021/01/27 03:03:04;;;;;;;6.32;2.80;;;8.60;69.40;;;;;;2098998;28;20052;-72
2021/01/27 03:04:12;;;;;;;7.75;2.95;;;8.50;71.20;;;;;;2099005;28;20497;-73
2021/01/27 03:05:19;;;;;;;5.53;2.53;;;8.50;69.80;;;;;;2099592;28;20390;-72
2021/01/27 03:06:23;;;;;;;5.13;1.92;;;8.90;69.40;;;;;;2099527;28;20052;-71
2021/01/27 03:07:28;;;;;;;7.75;2.72;;;9.20;69.50;;;;;;2099419;28;20040;-72
2021/01/27 03:08:33;;;;;;;7.80;3.22;;;9.00;68.90;;;;;;2099643;28;20074;-74
2021/01/27 03:09:39;;;;;;;6.72;2.97;;;8.70;69.60;;;;;;2098640;28;20051;-73
2021/01/27 03:10:45;;;;;;;6.97;3.15;;;8.60;69.50;;;;;;2098512;28;20045;-72
2021/01/27 03:11:48;;;;;;;9.38;3.38;;;8.60;69.10;;;;;;2099374;28;20048;-71
2021/01/27 03:12:50;;;;;;;4.28;2.58;;;8.60;70.30;;;;;;2098342;28;20048;-72
2021/01/27 03:13:52;;;;;;;6.53;2.17;;;8.70;69.00;;;;;;2098120;28;20049;-71
2021/01/27 03:14:54;;;;;;;5.85;2.70;;;9.30;69.60;;;;;;2098894;28;20045;-72
2021/01/27 03:15:58;;;;;;;5.45;3.08;;;9.20;67.60;;;;;;2099127;28;20048;-73
2021/01/27 03:17:03;;;;;;;6.68;2.38;;;8.80;68.20;;;;;;2098720;28;20493;-72
2021/01/27 03:18:12;;;;;;;6.88;2.75;;;8.90;68.40;;;;;;2098976;28;20405;-72
2021/01/27 03:19:20;;;;;;;3.10;2.22;;;8.90;69.70;;;;;;2098962;28;20049;-71
2021/01/27 03:20:25;;;;;;;3.58;1.92;;;9.10;68.70;;;;;;2098423;28;20072;-72
2021/01/27 03:21:36;;;;;;;7.90;2.88;;;9.30;69.10;;;;;;2098084;28;20047;-72
2021/01/27 03:22:43;;;;;;;5.60;2.92;;;9.70;65.30;;;;;;2098252;28;20417;-73
2021/01/27 03:23:52;;;;;;;4.45;2.47;;;9.60;65.50;;;;;;2098429;28;20048;-72
2021/01/27 03:25:00;;;;;;;9.70;3.17;;;9.90;64.10;;;;;;2098876;28;20073;-73
2021/01/27 03:26:08;;;;;;;6.75;3.20;;;9.80;64.40;;;;;;2099646;28;20049;-74
2021/01/27 03:27:15;;;;;;;3.83;1.90;;;9.90;63.30;;;;;;2100287;28;20048;-73
2021/01/27 03:28:23;;;;;;;5.82;3.00;;;9.90;64.60;;;;;;2100480;28;20055;-73
2021/01/27 03:29:33;;;;;;;3.97;2.10;;;10.00;63.60;;;;;;2100002;28;20055;-73
2021/01/27 03:30:36;;;;;;;7.93;3.28;;;10.20;64.20;;;;;;2100030;28;20464;-71
2021/01/27 03:31:38;;;;;;;3.58;2.13;;;9.70;63.80;;;;;;2100377;28;20049;-73
2021/01/27 03:32:45;;;;;;;7.15;3.28;;;10.00;63.60;;;;;;2100750;28;20044;-73
2021/01/27 03:33:54;;;;;;;10.18;3.03;;;9.40;64.90;;;;;;2100233;28;20048;-72
2021/01/27 03:34:59;;;;;;;6.50;3.63;;;9.30;65.50;;;;;;2099050;28;20401;-72
2021/01/27 03:36:05;;;;;;;4.90;2.80;;;9.30;66.20;;;;;;2099243;28;20055;-71
2021/01/27 03:37:11;;;;;;;5.50;2.97;;;9.00;67.00;;;;;;2098464;28;20044;-72
2021/01/27 03:38:19;;;;;;;7.20;3.00;;;9.30;67.00;;;;;;2098464;28;20053;-72
2021/01/27 03:39:26;;;;;;;7.80;3.58;;;9.40;65.30;;;;;;2098168;28;20049;-72
2021/01/27 03:40:28;;;;;;;5.32;2.78;;;8.80;65.40;;;;;;2098288;28;20048;-73
2021/01/27 03:41:33;;;;;;;6.20;2.58;;;9.10;67.40;;;;;;2098510;28;20041;-72
2021/01/27 03:42:43;;;;;;;5.88;2.50;;;9.10;68.00;;;;;;2098452;28;20076;-72
2021/01/27 03:43:55;;;;;;;6.53;3.03;;;8.90;67.90;;;;;;2098232;28;20404;-72
2021/01/27 03:45:00;;;;;;;5.25;2.95;;;8.50;69.50;;;;;;2098303;28;20059;-71
2021/01/27 03:46:12;;;;;;;5.00;3.13;;;8.80;68.70;;;;;;2097971;28;20508;-74
2021/01/27 03:47:19;;;;;;;4.75;2.40;;;8.90;67.90;;;;;;2098056;28;20045;-72
2021/01/27 03:48:30;;;;;;;3.95;2.15;;;8.90;69.60;;;;;;2098313;28;20044;-72
2021/01/27 03:49:36;;;;;;;6.00;2.92;;;8.80;69.80;;;;;;2098114;28;20048;-72
2021/01/27 03:50:39;;;;;;;7.90;2.83;;;8.50;70.10;;;;;;2098036;28;20044;-73
2021/01/27 03:51:44;;;;;;;3.67;2.38;;;8.20;70.70;;;;;;2098289;28;20045;-72
2021/01/27 03:52:52;;;;;;;4.57;3.20;;;8.50;71.60;;;;;;2097247;28;20044;-72
2021/01/27 03:53:56;;;;;;;4.18;2.20;;;9.00;70.00;;;;;;2097396;28;20044;-72
2021/01/27 03:55:02;;;;;;;7.85;3.33;;;9.40;69.20;;;;;;2097908;28;20057;-72
2021/01/27 03:56:21;;;;;;;7.40;3.08;;;9.20;67.40;;;;;;2097770;28;20055;-72
2021/01/27 03:57:27;;;;;;;5.00;2.67;;;9.00;67.40;;;;;;2097172;28;20159;-72
2021/01/27 03:58:32;;;;;;;5.18;3.00;;;9.00;68.30;;;;;;2097462;28;20101;-72
2021/01/27 03:59:35;;;;;;;6.00;2.28;;;8.90;68.70;;;;;;2097967;28;20044;-72
2021/01/27 04:00:36;;;;;;;;;;;9.00;68.60;;;;;;2098216;28;20045;-72
2021/01/27 04:01:49;;;;;;;6.70;2.42;;;8.80;68.70;;;;;;2097945;28;20468;-74
2021/01/27 04:03:00;;;;;;;7.53;2.35;;;9.40;68.20;;;;;;2097763;28;20109;-72
2021/01/27 04:04:02;;;;;;;3.85;2.10;;;9.60;67.60;;;;;;2098069;28;20044;-72
2021/01/27 04:05:04;;;;;;;5.78;2.38;;;10.00;65.70;;;;;;2097933;28;20049;-72
2021/01/27 04:06:07;;;;;;;5.97;2.95;;;9.90;65.20;;;;;;2097829;28;20044;-72
2021/01/27 04:07:09;;;;;;;5.65;2.80;;;9.60;66.10;;;;;;2097787;28;20049;-74
2021/01/27 04:08:12;;;;;;;8.38;3.45;;;9.30;67.30;;;;;;2097994;28;20040;-72
2021/01/27 04:09:14;;;;;;;5.65;2.17;;;9.20;67.30;;;;;;2097836;28;20048;-74
2021/01/27 04:10:16;;;;;;;8.68;2.92;;;9.30;68.90;;;;;;2097583;28;20489;-72
2021/01/27 04:11:17;;;;;;;7.68;2.33;;;9.60;67.30;;;;;;2097840;28;20048;-73
2021/01/27 04:12:19;;;;;;;4.28;2.15;;;9.70;66.80;;;;;;2097758;28;20519;-72
2021/01/27 04:13:21;;;;;;;5.85;3.15;;;9.90;66.50;;;;;;2097915;28;20051;-72
2021/01/27 04:14:23;;;;;;;;;;;10.00;65.30;;;;;;2098439;28;20047;-73
2021/01/27 04:15:25;;;;;;;7.50;2.75;;;9.70;65.50;;;;;;2097207;28;19927;-72
2021/01/27 04:16:27;;;;;;;3.97;2.38;;;9.90;66.00;;;;;;2097367;28;20409;-72
2021/01/27 04:17:30;;;;;;;4.35;2.42;;;9.60;65.90;;;;;;2097842;28;20382;-72
2021/01/27 04:18:33;;;;;;;4.15;2.08;;;9.40;67.70;;;;;;2097548;28;20516;-72
2021/01/27 04:19:34;;;;;;;8.15;2.30;;;9.40;68.00;;;;;;2098309;28;20044;-71
2021/01/27 04:20:36;;;;;;;3.75;2.22;;;9.60;67.70;;;;;;2099086;28;20044;-72
2021/01/27 04:21:38;;;;;;;6.40;2.63;;;9.70;66.80;;;;;;2099020;28;20056;-72
2021/01/27 04:22:39;;;;;;;7.82;3.55;;;9.60;67.40;;;;;;2099399;28;20052;-74
2021/01/27 04:23:42;;;;;;;8.15;3.08;;;9.40;68.10;;;;;;2098568;28;20493;-72
2021/01/27 04:24:44;;;;;;;7.82;2.83;;;9.20;68.80;;;;;;2098534;28;20048;-72
2021/01/27 04:25:46;;;;;;;7.22;3.08;;;9.40;68.80;;;;;;2098153;28;20048;-73
2021/01/27 04:26:48;;;;;;;6.32;2.92;;;9.20;69.00;;;;;;2098026;28;20060;-72
2021/01/27 04:27:50;;;;;;;7.57;3.00;;;9.50;69.00;;;;;;2098146;28;20421;-73
2021/01/27 04:28:51;;;;;;;;;;;9.50;68.20;;;;;;2098433;28;20049;-73
2021/01/27 04:29:53;;;;;;;6.85;3.60;;;10.00;66.70;;;;;;2097586;28;19928;-71
2021/01/27 04:30:55;;;;;;;11.57;4.20;;;9.70;67.00;;;;;;2097142;28;20049;-72
2021/01/27 04:31:57;;;;;;;4.93;2.58;;;9.20;68.90;;;;;;2097069;28;20543;-71
2021/01/27 04:32:59;;;;;;;6.97;3.00;;;9.10;70.50;;;;;;2097783;28;20401;-73
2021/01/27 04:34:01;;;;;;;8.98;3.15;;;9.20;70.40;;;;;;2097719;28;20061;-72
2021/01/27 04:35:05;;;;;;;5.30;2.90;;;9.40;69.60;;;;;;2097651;28;20049;-72
2021/01/27 04:36:07;;;;;;;6.57;2.78;;;9.00;70.50;;;;;;2098049;28;20485;-72
2021/01/27 04:37:08;;;;;;;;;;;9.30;70.50;;;;;;2098476;28;20409;-73
2021/01/27 04:38:10;;;;;;;10.15;3.65;;;8.90;70.90;;;;;;2097713;28;20427;-73
2021/01/27 04:39:12;;;;;;;6.60;3.40;;;8.80;71.30;;;;;;2097450;28;20041;-72
2021/01/27 04:40:18;;;;;;;8.25;3.85;;;8.90;72.00;;;;;;2097074;28;20056;-73
2021/01/27 04:41:20;;;;;;;4.13;2.63;;;8.80;71.40;;;;;;2097255;28;20040;-74
2021/01/27 04:42:27;;;;;;;4.97;2.40;;;9.20;70.50;;;;;;2097545;28;20428;-74
2021/01/27 04:43:33;;;;;;;3.42;1.77;;;9.10;71.20;;;;;;2097424;28;20048;-72
2021/01/27 04:44:34;;;;;;;6.32;3.22;;;9.90;68.70;;;;;;2097322;28;20490;-72
2021/01/27 04:45:36;;;;;;;7.18;3.05;;;9.40;68.90;;;;;;2097522;28;20055;-72
2021/01/27 04:46:45;;;;;;;;;;;9.40;68.90;;;;;;2098140;28;20040;-73
2021/01/27 04:47:55;;;;;;;4.53;2.80;;;9.20;69.90;;;;;;2097790;28;19924;-72
2021/01/27 04:49:06;;;;;;;10.82;3.55;;;9.10;71.00;;;;;;2097600;28;20076;-72
2021/01/27 04:50:13;;;;;;;5.65;2.95;;;8.70;71.50;;;;;;2097484;28;20421;-72
2021/01/27 04:51:31;;;;;;;5.60;2.83;;;8.70;73.50;;;;;;2097466;28;20049;-72
2021/01/27 04:52:58;;;;;;;8.57;3.25;;;9.20;71.10;;;;;;2097643;28;20055;-72
2021/01/27 04:54:19;;;;;;;6.95;2.13;;;9.00;71.70;;;;;;2097531;28;20052;-73
2021/01/27 04:55:33;;;;;;;5.50;2.75;;;9.80;69.30;;;;;;2097480;28;20052;-72
2021/01/27 04:56:55;;;;;;;5.57;2.67;;;9.90;68.20;;;;;;2097530;28;20052;-72
2021/01/27 04:58:15;;;;;;;6.63;3.42;;;9.30;70.20;;;;;;2097703;28;20044;-72
2021/01/27 04:59:30;;;;;;;7.07;3.72;;;9.10;71.00;;;;;;2097404;28;20040;-72
2021/01/27 05:00:43;;;;;;;4.70;2.85;;;8.50;73.60;;;;;;2097731;28;20048;-72
2021/01/27 05:02:10;;;;;;;8.30;2.90;;;8.60;75.30;;;;;;2098028;28;20044;-72
2021/01/27 05:03:42;;;;;;;4.78;3.13;;;8.70;74.90;;;;;;2098739;28;20048;-74
2021/01/27 05:05:09;;;;;;;7.15;3.45;;;8.30;77.60;;;;;;2098818;28;20051;-72
2021/01/27 05:06:15;;;;;;;4.93;2.22;;;8.60;76.80;;;;;;2092667;28;20049;-72
2021/01/27 05:07:46;;;;;;;4.95;2.20;;;9.00;75.50;;;;;;2096537;28;20124;-73
2021/01/27 05:09:00;;;;;;;9.48;3.20;;;9.50;72.00;;;;;;2097525;28;20056;-72
2021/01/27 05:10:05;;;;;;;7.20;3.58;;;10.00;69.70;;;;;;2097350;28;20041;-73
2021/01/27 05:11:11;;;;;;;8.63;3.00;;;9.40;71.70;;;;;;2097643;28;20046;-72
2021/01/27 05:12:15;;;;;;;4.95;2.20;;;9.70;70.90;;;;;;2097485;28;20063;-72
2021/01/27 05:13:25;;;;;;;5.80;2.55;;;10.10;68.80;;;;;;2097501;28;20086;-72
2021/01/27 05:14:27;;;;;;;15.00;8.80;;;10.00;69.00;;;;;;2097446;28;20409;-71
2021/01/27 05:15:29;;;;;;;13.35;5.78;;;10.20;67.90;;;;;;2097796;28;20040;-72
2021/01/27 05:16:32;;;;;;;;;;;10.30;67.40;;;;;;2098286;28;20164;-72
2021/01/27 05:17:34;;;;;;;6.68;2.85;;;10.10;68.20;;;;;;2098048;28;19920;-72
2021/01/27 05:18:36;;;;;;;;;;;9.80;69.50;;;;;;2098056;28;20515;-72
2021/01/27 05:19:38;;;;;;;6.90;4.10;;;9.30;71.70;;;;;;2098111;28;19935;-72
2021/01/27 05:20:40;;;;;;;6.70;3.47;;;9.30;73.00;;;;;;2097694;28;20045;-72
2021/01/27 05:21:45;;;;;;;2.85;2.10;;;9.10;73.00;;;;;;2097952;28;20053;-72
2021/01/27 05:22:47;;;;;;;6.63;3.20;;;9.60;71.90;;;;;;2097885;28;20044;-72
2021/01/27 05:23:49;;;;;;;;;;;9.50;71.40;;;;;;2098503;28;20049;-73
2021/01/27 05:24:50;;;;;;;6.53;2.25;;;9.70;71.20;;;;;;2097837;28;20054;-72
2021/01/27 05:26:04;;;;;;;4.05;2.25;;;9.60;70.60;;;;;;2098089;28;20493;-72
2021/01/27 05:27:10;;;;;;;4.63;2.50;;;9.80;70.20;;;;;;2098270;28;20041;-72
2021/01/27 05:28:17;;;;;;;6.07;3.05;;;9.90;70.40;;;;;;2098294;28;20044;-73
2021/01/27 05:29:25;;;;;;;3.55;2.13;;;9.70;70.80;;;;;;2098572;28;20044;-72
2021/01/27 05:30:30;;;;;;;3.83;2.53;;;9.70;70.20;;;;;;2098070;28;20528;-74
2021/01/27 05:32:01;;;;;;;6.55;3.45;;;9.70;70.20;;;;;;2098148;28;20055;-72
2021/01/27 05:33:04;;;;;;;5.05;1.85;;;10.00;69.00;;;;;;2097984;28;20055;-73
2021/01/27 05:34:05;;;;;;;;;;;10.60;67.30;;;;;;2098637;28;20124;-72
2021/01/27 05:35:23;;;;;;;5.85;2.17;;;10.90;64.90;;;;;;2097392;28;20365;-73
2021/01/27 05:36:28;;;;;;;6.97;2.67;;;11.10;64.20;;;;;;2097833;28;20051;-72
2021/01/27 05:37:34;;;;;;;6.18;3.33;;;10.60;64.80;;;;;;2098283;28;20051;-74
2021/01/27 05:38:36;;;;;;;3.50;2.30;;;10.40;66.20;;;;;;2097881;28;20052;-72
2021/01/27 05:39:40;;;;;;;4.60;2.83;;;10.60;66.10;;;;;;2097077;28;20067;-72
2021/01/27 05:40:42;;;;;;;5.43;3.42;;;10.10;67.90;;;;;;2097238;28;20053;-72
2021/01/27 05:41:44;;;;;;;5.93;3.58;;;9.80;70.00;;;;;;2097348;28;20059;-75
2021/01/27 05:42:47;;;;;;;5.03;2.22;;;9.40;71.90;;;;;;2097331;28;20048;-72
2021/01/27 05:43:50;;;;;;;4.90;2.30;;;9.60;71.40;;;;;;2097403;28;20048;-74
2021/01/27 05:44:53;;;;;;;6.22;2.45;;;10.30;68.40;;;;;;2097075;28;20489;-72
2021/01/27 05:46:10;;;;;;;5.22;2.17;;;10.40;68.20;;;;;;2097077;28;20045;-72
2021/01/27 05:47:32;;;;;;;6.72;2.78;;;10.00;69.70;;;;;;2097258;28;20051;-72
2021/01/27 05:48:42;;;;;;;3.50;1.80;;;10.00;69.70;;;;;;2097629;28;20358;-72
2021/01/27 05:49:43;;;;;;;3.97;2.55;;;10.20;68.30;;;;;;2097425;28;20076;-72